Airfield :
LOGIN :

Register | Disclaimer

   EN    FR    IT 

 










Legend :    VFR   Marginal VFR   IFR   Intensive IFR   Very Intensive IFR
Visi :
Ceiling :
>= 8 km
>= 3000ft
5 to 8 km
1000 to 3000 ft
1500m to 5 km
500 to 1000 ft
800 to 1500m
200 to 500 ft
< 800m
< 200 ft
Symbols :   Thunderstorms  Fog  Heavy snow  Heavy precipitations  Wind > 20 kt
SIGMETs :     Misc.  Thunderstorms  Icing  Turbulence  Mountain Waves  Volcanic Ashes






- Airport Elevation : 141 ft
- IATA code : SKS


EKSP - Srydstrup Vojens

CURRENT METAR :
  • 210450Z 30005KT 8000 FEW005 BKN018 06/04 Q1014 BECMG 9999

EXPIRED METARs :
  • 210439Z 31007KT 8000 FEW005 BKN018 06/04 Q1014 BECMG 9999
  • 210433Z 31008KT 8000 FEW005 SCT018 BKN200 06/04 Q1014 BECMG 9999
  • 210424Z 31008KT 7000 FEW005 SCT016 BKN070 06/05 Q1014 BECMG 9999
  • 210350Z 29007KT 5000 OVC007 06/05 Q1014
  • 210347Z 29007KT 5000 OVC007 06/05 Q1014
  • 210330Z 29007KT 4000 BR OVC008 06/05 Q1014
  • 210320Z 29007KT 3000 BR BKN005 BKN060 05/05 Q1014
  • 210315Z 29007KT 3000 BR BKN005 BKN060 05/05 Q1014
  • 210250Z 28006KT 1600 MIFG BR FEW009 BKN060 05/04 Q1014
  • 210220Z 27004KT 2500 MIFG BR NSC 04/04 Q1014

TAF TAF EKSP
Valid from the 21 at 03:00 until the 22 at 03:00 UTC


210214Z 2103/2203 30008KT 2500 -RA BR BKN003
BECMG 2103/2105 9999 NSW SCT020 SCT050
TEMPO 2108/2111 30015G25KT
BECMG 2111/2113 31020G35KT
TEMPO 2113/2117 31018G28KT 7000 -SHRA SCT020CB
BECMG 2118/2120 31015KT



MET'MAP, your aeronautical weather chart ! - Copyright ORBIFLY December 2007 - Disclaimer

ORBIFLY MET'MAP TEAM :

Programming & Development : Alexandra Zaïnal
Concept & original design : Baudouin d'Aumeries
Assistance for programming : Marc-Olivier Méhu
Technical & hardware support : Manuel Goepfert

Contact : metmap@orbifly.com




SOURCES & CREDITS :

   NOAA